Time;durP1;ratioP1;P1;durP2;ratioP2;P2;SDS_P1;SDS_P2;PMS_P1;PMS_P2;Temp;Humidity;BMP_temperature;BMP_pressure;BME280_temperature;BME280_humidity;BME280_pressure;Samples;Min_cycle;Max_cycle;Signal;HPM_P1;HPM_P2
2024/01/14 00:00:06;;;;;;;17.85;2.30;;;;;;;;;;5035226;28;20080;-71
2024/01/14 00:02:32;;;;;;;22.70;2.90;;;;;;;;;;5037139;28;20037;-71
2024/01/14 00:04:58;;;;;;;14.25;2.53;;;;;;;;;;5033622;28;20041;-72
2024/01/14 00:07:24;;;;;;;13.35;1.98;;;;;;;;;;5038268;28;20049;-71
2024/01/14 00:09:50;;;;;;;16.33;2.20;;;;;;;;;;5037683;28;20045;-71
2024/01/14 00:12:16;;;;;;;20.17;2.78;;;;;;;;;;5035617;28;20497;-72
2024/01/14 00:14:42;;;;;;;15.82;2.78;;;;;;;;;;5035842;28;20053;-71
2024/01/14 00:17:10;;;;;;;18.45;2.92;;;;;;;;;;5038476;28;20076;-71
2024/01/14 00:19:36;;;;;;;14.93;2.20;;;;;;;;;;5035405;28;20669;-72
2024/01/14 00:22:02;;;;;;;20.42;2.25;;;;;;;;;;5040715;28;20055;-72
2024/01/14 00:24:28;;;;;;;15.20;2.17;;;;;;;;;;5041791;28;20052;-72
2024/01/14 00:26:54;;;;;;;18.10;2.45;;;;;;;;;;5035478;28;20041;-72
2024/01/14 00:29:20;;;;;;;17.38;2.50;;;;;;;;;;5037369;28;20444;-72
2024/01/14 00:31:46;;;;;;;15.30;2.40;;;;;;;;;;5037796;28;20049;-72
2024/01/14 00:34:13;;;;;;;14.43;2.00;;;;;;;;;;5035902;28;20048;-72
2024/01/14 00:36:39;;;;;;;15.50;2.33;;;;;;;;;;5036135;28;20442;-71
2024/01/14 00:39:06;;;;;;;10.77;2.30;;;;;;;;;;5039000;28;20053;-71
2024/01/14 00:41:32;;;;;;;14.10;2.10;;;;;;;;;;5037084;28;20081;-71
2024/01/14 00:43:58;;;;;;;16.98;2.20;;;;;;;;;;5037973;28;20041;-71
2024/01/14 00:46:24;;;;;;;15.65;2.10;;;;;;;;;;5033155;28;20041;-72
2024/01/14 00:48:50;;;;;;;19.88;2.33;;;;;;;;;;5038381;28;20579;-71
2024/01/14 00:51:16;;;;;;;16.67;2.80;;;;;;;;;;5030802;28;20049;-71
2024/01/14 00:53:42;;;;;;;16.88;2.45;;;;;;;;;;5035261;28;20045;-71
2024/01/14 00:56:08;;;;;;;11.93;1.80;;;;;;;;;;5033292;28;20049;-71
2024/01/14 00:58:35;;;;;;;18.13;2.20;;;;;;;;;;5038789;28;20068;-71
2024/01/14 01:01:01;;;;;;;10.93;2.20;;;;;;;;;;5031327;28;20041;-71
2024/01/14 01:03:27;;;;;;;15.13;2.30;;;;;;;;;;5038806;28;20048;-71
2024/01/14 01:05:54;;;;;;;15.05;2.00;;;;;;;;;;5033343;28;20869;-71
2024/01/14 01:08:20;;;;;;;19.60;2.35;;;;;;;;;;5038877;28;20045;-72
2024/01/14 01:10:46;;;;;;;11.77;2.35;;;;;;;;;;5035765;28;20045;-72
2024/01/14 01:13:12;;;;;;;17.90;2.78;;;;;;;;;;5036504;28;20135;-71
2024/01/14 01:15:38;;;;;;;11.70;1.85;;;;;;;;;;5030534;28;20052;-72
2024/01/14 01:18:05;;;;;;;10.55;1.48;;;;;;;;;;5038242;28;20075;-72
2024/01/14 01:20:31;;;;;;;17.23;1.70;;;;;;;;;;5035297;28;20130;-72
2024/01/14 01:22:57;;;;;;;10.88;1.50;;;;;;;;;;5036973;28;20053;-72
2024/01/14 01:25:23;;;;;;;15.77;1.60;;;;;;;;;;5035097;28;20041;-72
2024/01/14 01:27:49;;;;;;;12.85;1.73;;;;;;;;;;5038077;28;20095;-71
2024/01/14 01:30:15;;;;;;;13.10;2.08;;;;;;;;;;5032801;28;20628;-71
2024/01/14 01:32:41;;;;;;;10.52;1.90;;;;;;;;;;5032879;28;20049;-71
2024/01/14 01:35:07;;;;;;;16.33;2.20;;;;;;;;;;5033260;28;20049;-71
2024/01/14 01:37:33;;;;;;;14.07;1.77;;;;;;;;;;5037304;28;20557;-72
2024/01/14 01:39:59;;;;;;;15.20;1.60;;;;;;;;;;5035961;28;20494;-71
2024/01/14 01:42:26;;;;;;;12.63;1.90;;;;;;;;;;5037854;28;20052;-71
2024/01/14 01:44:52;;;;;;;8.43;1.77;;;;;;;;;;5032938;28;20052;-71
2024/01/14 01:47:18;;;;;;;11.55;1.83;;;;;;;;;;5036083;28;20064;-72
2024/01/14 01:49:47;;;;;;;13.13;1.75;;;;;;;;;;5037228;28;20390;-71
2024/01/14 01:52:13;;;;;;;13.55;1.98;;;;;;;;;;5035534;28;20833;-71
2024/01/14 01:54:40;;;;;;;19.52;2.13;;;;;;;;;;5035031;28;20159;-71
2024/01/14 01:57:06;;;;;;;14.43;2.20;;;;;;;;;;5028155;28;20041;-72
2024/01/14 01:59:32;;;;;;;15.00;2.13;;;;;;;;;;5032658;28;20078;-72
2024/01/14 02:02:00;;;;;;;16.08;2.20;;;;;;;;;;5033720;28;20118;-72
2024/01/14 02:04:26;;;;;;;20.92;2.30;;;;;;;;;;5032460;28;20049;-73
2024/01/14 02:06:52;;;;;;;10.38;1.85;;;;;;;;;;5030279;28;20638;-72
2024/01/14 02:09:19;;;;;;;15.68;2.10;;;;;;;;;;5035474;28;20724;-73
2024/01/14 02:11:45;;;;;;;10.98;1.65;;;;;;;;;;5019649;28;20044;-72
2024/01/14 02:14:11;;;;;;;8.88;1.75;;;;;;;;;;5036413;28;20056;-72
2024/01/14 02:16:37;;;;;;;13.10;1.95;;;;;;;;;;5033249;28;20508;-72
2024/01/14 02:19:03;;;;;;;15.23;2.15;;;;;;;;;;5037910;28;20072;-72
2024/01/14 02:21:55;;;;;;;13.40;2.15;;;;;;;;;;5034307;28;20119;-71
2024/01/14 02:24:28;;;;;;;13.52;2.08;;;;;;;;;;5027925;28;20110;-71
2024/01/14 02:26:55;;;;;;;12.48;1.95;;;;;;;;;;5034881;28;20509;-71
2024/01/14 02:29:21;;;;;;;18.30;2.65;;;;;;;;;;5037499;28;20041;-71
2024/01/14 02:31:47;;;;;;;14.85;1.95;;;;;;;;;;5034536;28;20188;-71
2024/01/14 02:34:13;;;;;;;22.45;3.08;;;;;;;;;;5038187;28;20060;-71
2024/01/14 02:36:39;;;;;;;17.88;2.17;;;;;;;;;;5032189;28;20044;-71
2024/01/14 02:39:05;;;;;;;17.67;2.38;;;;;;;;;;5037687;28;20044;-71
2024/01/14 02:41:32;;;;;;;18.17;2.00;;;;;;;;;;5034879;28;20048;-72
2024/01/14 02:43:58;;;;;;;22.17;2.25;;;;;;;;;;5036645;28;20042;-72
2024/01/14 02:46:24;;;;;;;16.20;2.67;;;;;;;;;;5034263;28;20044;-72
2024/01/14 02:48:50;;;;;;;18.85;2.33;;;;;;;;;;5039002;28;20481;-72
2024/01/14 02:51:16;;;;;;;21.73;2.35;;;;;;;;;;5034664;28;20068;-72
2024/01/14 02:53:42;;;;;;;16.92;2.30;;;;;;;;;;5033145;28;20143;-73
2024/01/14 02:56:10;;;;;;;15.00;2.50;;;;;;;;;;5035904;28;20037;-72
2024/01/14 02:58:36;;;;;;;12.90;2.05;;;;;;;;;;5036132;28;20059;-72
2024/01/14 03:01:02;;;;;;;18.52;2.42;;;;;;;;;;5037640;28;20044;-71
2024/01/14 03:03:28;;;;;;;21.20;2.25;;;;;;;;;;5019962;28;20064;-72
2024/01/14 03:05:54;;;;;;;17.88;2.25;;;;;;;;;;5030479;28;20474;-72
2024/01/14 03:08:20;;;;;;;10.48;2.20;;;;;;;;;;5041343;28;20044;-72
2024/01/14 03:10:46;;;;;;;11.10;1.85;;;;;;;;;;5033326;28;20509;-72
2024/01/14 03:13:14;;;;;;;15.30;1.85;;;;;;;;;;5038535;28;20572;-72
2024/01/14 03:15:40;;;;;;;13.18;1.98;;;;;;;;;;5036166;28;20132;-72
2024/01/14 03:18:06;;;;;;;17.63;2.15;;;;;;;;;;5037867;28;20041;-71
2024/01/14 03:20:32;;;;;;;13.80;2.22;;;;;;;;;;5038678;28;20087;-72
2024/01/14 03:22:58;;;;;;;14.13;2.20;;;;;;;;;;5042396;28;20048;-72
2024/01/14 03:25:24;;;;;;;14.23;2.00;;;;;;;;;;5039260;28;20037;-72
2024/01/14 03:27:50;;;;;;;16.50;2.03;;;;;;;;;;5040124;28;20047;-72
2024/01/14 03:30:17;;;;;;;18.67;2.50;;;;;;;;;;5036855;28;20072;-72
2024/01/14 03:32:44;;;;;;;12.00;2.15;;;;;;;;;;5042499;28;20091;-72
2024/01/14 03:35:10;;;;;;;18.80;2.38;;;;;;;;;;5036159;28;20048;-72
2024/01/14 03:37:36;;;;;;;15.25;2.08;;;;;;;;;;5034201;28;20045;-72
2024/01/14 03:40:02;;;;;;;11.48;1.92;;;;;;;;;;5038193;28;20102;-72
2024/01/14 03:42:28;;;;;;;15.65;2.05;;;;;;;;;;5033030;28;21306;-72
2024/01/14 03:44:54;;;;;;;17.42;2.33;;;;;;;;;;5040578;28;20497;-72
2024/01/14 03:47:20;;;;;;;17.85;2.20;;;;;;;;;;5036061;28;20044;-72
2024/01/14 03:49:47;;;;;;;12.85;2.13;;;;;;;;;;5035812;28;20412;-72
2024/01/14 03:52:13;;;;;;;19.52;2.65;;;;;;;;;;5039017;28;20560;-72
2024/01/14 03:54:39;;;;;;;14.02;1.70;;;;;;;;;;5037131;28;21571;-72
2024/01/14 03:57:05;;;;;;;17.92;2.10;;;;;;;;;;5039453;28;20042;-72
2024/01/14 03:59:31;;;;;;;19.08;2.53;;;;;;;;;;5035500;28;20033;-72
2024/01/14 04:01:57;;;;;;;13.82;2.08;;;;;;;;;;5043196;28;20044;-72
2024/01/14 04:04:23;;;;;;;16.65;2.65;;;;;;;;;;5037672;28;20048;-73
2024/01/14 04:06:49;;;;;;;18.50;2.22;;;;;;;;;;5038494;28;20044;-72
2024/01/14 04:09:15;;;;;;;13.23;2.10;;;;;;;;;;5043379;28;20068;-72
2024/01/14 04:11:42;;;;;;;13.32;1.88;;;;;;;;;;5036375;28;20059;-72
2024/01/14 04:14:08;;;;;;;16.58;2.30;;;;;;;;;;5040185;28;20544;-72
2024/01/14 04:16:37;;;;;;;21.65;2.08;;;;;;;;;;5035850;28;20049;-73
2024/01/14 04:19:03;;;;;;;10.63;1.75;;;;;;;;;;5044205;28;20049;-72
2024/01/14 04:21:30;;;;;;;8.00;1.98;;;;;;;;;;5035716;28;20048;-72
2024/01/14 04:23:56;;;;;;;14.45;2.13;;;;;;;;;;5042871;28;20118;-72
2024/01/14 04:26:22;;;;;;;12.70;2.13;;;;;;;;;;5040166;28;20075;-72
2024/01/14 04:28:52;;;;;;;16.08;1.90;;;;;;;;;;5039142;28;20046;-72
2024/01/14 04:31:18;;;;;;;12.63;1.90;;;;;;;;;;5037761;28;20045;-72
2024/01/14 04:33:44;;;;;;;15.80;1.80;;;;;;;;;;5042407;28;20059;-72
2024/01/14 04:36:10;;;;;;;12.43;1.77;;;;;;;;;;5033129;28;20049;-72
2024/01/14 04:38:36;;;;;;;13.50;1.90;;;;;;;;;;5034190;28;20052;-72
2024/01/14 04:41:03;;;;;;;10.32;1.52;;;;;;;;;;5035562;28;20598;-72
2024/01/14 04:43:29;;;;;;;9.15;1.55;;;;;;;;;;5036376;28;20060;-72
2024/01/14 04:45:55;;;;;;;7.35;1.55;;;;;;;;;;5034200;28;20041;-72
2024/01/14 04:48:21;;;;;;;14.63;1.88;;;;;;;;;;5040638;28;20059;-72
2024/01/14 04:50:47;;;;;;;10.95;1.90;;;;;;;;;;5035614;28;20064;-72
2024/01/14 04:53:13;;;;;;;12.30;1.40;;;;;;;;;;5037147;28;20056;-72
2024/01/14 04:55:39;;;;;;;16.08;1.88;;;;;;;;;;5034592;28;20075;-72
2024/01/14 04:58:05;;;;;;;15.43;1.98;;;;;;;;;;5040847;28;20145;-72
2024/01/14 05:00:31;;;;;;;10.23;1.55;;;;;;;;;;5037156;28;20049;-72
2024/01/14 05:02:57;;;;;;;13.68;1.58;;;;;;;;;;5043310;28;20124;-72
2024/01/14 05:05:23;;;;;;;14.93;1.98;;;;;;;;;;5037447;28;20044;-72
2024/01/14 05:07:49;;;;;;;8.48;1.65;;;;;;;;;;5039615;28;20091;-72
2024/01/14 05:10:17;;;;;;;15.80;2.03;;;;;;;;;;5036759;28;20052;-72
2024/01/14 05:12:43;;;;;;;9.73;1.60;;;;;;;;;;5019513;28;20262;-72
2024/01/14 05:15:10;;;;;;;9.60;1.88;;;;;;;;;;5040784;28;20487;-72
2024/01/14 05:17:36;;;;;;;11.52;1.98;;;;;;;;;;5041043;28;20053;-72
2024/01/14 05:20:02;;;;;;;12.65;1.40;;;;;;;;;;5035331;28;20048;-72
2024/01/14 05:22:28;;;;;;;12.00;1.40;;;;;;;;;;5040576;28;20045;-72
2024/01/14 05:24:55;;;;;;;10.02;1.38;;;;;;;;;;5020442;28;20045;-72
2024/01/14 05:27:21;;;;;;;7.20;1.35;;;;;;;;;;5039782;28;20052;-72
2024/01/14 05:29:47;;;;;;;13.80;1.50;;;;;;;;;;5039414;28;20993;-73
2024/01/14 05:32:16;;;;;;;7.63;1.50;;;;;;;;;;5041811;28;20049;-72
2024/01/14 05:34:43;;;;;;;13.32;1.58;;;;;;;;;;5032950;28;20103;-72
2024/01/14 05:37:09;;;;;;;11.50;1.83;;;;;;;;;;5037958;28;20484;-72
2024/01/14 05:39:35;;;;;;;9.88;1.40;;;;;;;;;;5034444;28;20041;-72
2024/01/14 05:42:01;;;;;;;7.65;1.60;;;;;;;;;;5022602;28;20440;-72
2024/01/14 05:44:27;;;;;;;9.63;1.48;;;;;;;;;;5038499;28;20041;-72
2024/01/14 05:46:54;;;;;;;8.98;1.50;;;;;;;;;;5036735;28;20816;-72
2024/01/14 05:49:20;;;;;;;15.63;1.77;;;;;;;;;;5039149;28;20057;-72
2024/01/14 05:51:46;;;;;;;12.52;2.08;;;;;;;;;;5036921;28;20049;-72
2024/01/14 05:54:13;;;;;;;10.40;1.80;;;;;;;;;;5036442;28;20073;-72
2024/01/14 05:56:39;;;;;;;13.07;1.88;;;;;;;;;;5032725;28;20045;-72
2024/01/14 05:59:05;;;;;;;7.20;1.50;;;;;;;;;;5040570;28;20045;-72
2024/01/14 06:01:31;;;;;;;12.40;1.73;;;;;;;;;;5028770;28;20049;-72
2024/01/14 06:03:57;;;;;;;11.98;1.75;;;;;;;;;;5038570;28;20041;-72
2024/01/14 06:06:23;;;;;;;9.85;1.50;;;;;;;;;;5032820;28;20045;-71
2024/01/14 06:08:49;;;;;;;12.70;1.63;;;;;;;;;;5036204;28;20055;-70
2024/01/14 06:11:15;;;;;;;9.88;1.70;;;;;;;;;;5036165;28;20044;-70
2024/01/14 06:13:44;;;;;;;13.85;1.83;;;;;;;;;;5038484;28;20140;-70
2024/01/14 06:16:10;;;;;;;13.45;2.15;;;;;;;;;;5036872;28;20493;-70
2024/01/14 06:18:36;;;;;;;11.80;1.88;;;;;;;;;;5039164;28;20080;-70
2024/01/14 06:21:02;;;;;;;15.02;1.88;;;;;;;;;;5035422;28;20087;-70
2024/01/14 06:23:29;;;;;;;15.45;1.92;;;;;;;;;;5043858;28;20041;-70
2024/01/14 06:25:55;;;;;;;18.45;2.65;;;;;;;;;;5032092;28;20049;-70
2024/01/14 06:28:21;;;;;;;19.20;2.50;;;;;;;;;;5038827;28;20067;-70
2024/01/14 06:30:47;;;;;;;17.02;2.38;;;;;;;;;;5033743;28;20053;-70
2024/01/14 06:33:13;;;;;;;20.58;3.10;;;;;;;;;;5041669;28;20107;-70
2024/01/14 06:35:39;;;;;;;11.23;2.60;;;;;;;;;;5033580;28;20068;-71
2024/01/14 06:38:08;;;;;;;15.90;2.47;;;;;;;;;;5036135;28;20054;-70
2024/01/14 06:40:34;;;;;;;16.73;2.45;;;;;;;;;;5035116;28;20117;-70
2024/01/14 06:43:00;;;;;;;13.02;2.08;;;;;;;;;;5040115;28;20124;-70
2024/01/14 06:45:26;;;;;;;14.13;2.08;;;;;;;;;;5039200;28;20830;-69
2024/01/14 06:47:52;;;;;;;12.52;2.08;;;;;;;;;;5037968;28;20080;-69
2024/01/14 06:50:18;;;;;;;10.38;2.00;;;;;;;;;;5038853;28;20701;-70
2024/01/14 06:52:44;;;;;;;17.50;2.40;;;;;;;;;;5043049;28;20049;-70
2024/01/14 06:55:13;;;;;;;13.40;1.83;;;;;;;;;;5040907;28;20041;-70
2024/01/14 06:57:39;;;;;;;14.60;2.30;;;;;;;;;;5044469;28;20413;-70
2024/01/14 07:00:08;;;;;;;11.55;1.98;;;;;;;;;;5038983;28;20068;-70
2024/01/14 07:02:34;;;;;;;10.57;2.00;;;;;;;;;;5037339;28;20033;-70
2024/01/14 07:05:00;;;;;;;15.55;1.80;;;;;;;;;;5039518;28;20091;-70
2024/01/14 07:07:27;;;;;;;16.02;1.90;;;;;;;;;;5040031;28;20055;-70
2024/01/14 07:09:53;;;;;;;12.88;1.73;;;;;;;;;;5041133;28;20493;-70
2024/01/14 07:12:19;;;;;;;10.48;1.77;;;;;;;;;;5043139;28;20049;-70
2024/01/14 07:14:45;;;;;;;13.25;1.77;;;;;;;;;;5040734;28;20124;-70
2024/01/14 07:17:11;;;;;;;7.60;1.48;;;;;;;;;;5041244;28;20044;-70
2024/01/14 07:19:37;;;;;;;11.57;1.63;;;;;;;;;;5038079;28;20041;-70
2024/01/14 07:22:04;;;;;;;10.90;1.70;;;;;;;;;;5037961;28;20045;-70
2024/01/14 07:24:30;;;;;;;16.05;1.92;;;;;;;;;;5039960;28;20402;-70
2024/01/14 07:26:57;;;;;;;13.63;1.90;;;;;;;;;;5041372;28;20136;-70
2024/01/14 07:29:23;;;;;;;12.88;2.03;;;;;;;;;;5041212;28;20549;-70
2024/01/14 07:31:49;;;;;;;13.40;2.05;;;;;;;;;;5032741;28;20053;-70
2024/01/14 07:34:15;;;;;;;11.95;2.35;;;;;;;;;;5040639;28;20075;-70
2024/01/14 07:36:41;;;;;;;10.32;2.30;;;;;;;;;;5037336;28;20146;-70
2024/01/14 07:39:08;;;;;;;14.70;2.25;;;;;;;;;;5043495;28;20136;-70
2024/01/14 07:41:34;;;;;;;13.18;2.63;;;;;;;;;;5039467;28;20124;-71
2024/01/14 07:44:00;;;;;;;9.43;1.73;;;;;;;;;;5037954;28;20045;-70
2024/01/14 07:46:26;;;;;;;9.98;1.90;;;;;;;;;;5032263;28;20168;-70
2024/01/14 07:48:52;;;;;;;13.05;2.15;;;;;;;;;;5040447;28;20174;-70
2024/01/14 07:51:18;;;;;;;11.65;2.22;;;;;;;;;;5039630;28;20532;-71
2024/01/14 07:53:44;;;;;;;12.07;2.00;;;;;;;;;;5043135;28;20064;-71
2024/01/14 07:56:10;;;;;;;9.57;2.55;;;;;;;;;;5030055;28;20192;-71
2024/01/14 07:58:36;;;;;;;17.48;2.67;;;;;;;;;;5041252;28;20041;-71
2024/01/14 08:01:02;;;;;;;13.38;2.40;;;;;;;;;;5035543;28;20041;-69
2024/01/14 08:03:28;;;;;;;10.57;2.33;;;;;;;;;;5043257;28;20048;-71
2024/01/14 08:05:54;;;;;;;11.50;1.50;;;;;;;;;;5036025;28;20033;-71
2024/01/14 08:08:20;;;;;;;9.73;1.67;;;;;;;;;;5042590;28;20045;-70
2024/01/14 08:10:48;;;;;;;12.32;1.70;;;;;;;;;;5039339;28;20171;-70
2024/01/14 08:13:14;;;;;;;8.90;1.98;;;;;;;;;;5043114;28;20136;-71
2024/01/14 08:15:40;;;;;;;14.23;2.42;;;;;;;;;;5034804;28;20633;-71
2024/01/14 08:18:06;;;;;;;8.15;1.75;;;;;;;;;;5043840;28;20050;-71
2024/01/14 08:20:32;;;;;;;10.38;1.50;;;;;;;;;;5037867;28;20049;-71
2024/01/14 08:22:58;;;;;;;8.98;2.13;;;;;;;;;;5034922;28;20040;-72
2024/01/14 08:25:24;;;;;;;12.75;2.10;;;;;;;;;;5031519;28;20053;-72
2024/01/14 08:27:55;;;;;;;9.30;2.25;;;;;;;;;;5037909;28;20075;-72
2024/01/14 08:30:21;;;;;;;8.13;1.67;;;;;;;;;;5035620;28;20052;-72
2024/01/14 08:32:47;;;;;;;6.63;1.70;;;;;;;;;;5032264;28;20049;-71
2024/01/14 08:35:17;;;;;;;7.43;1.50;;;;;;;;;;5036450;28;20132;-71
2024/01/14 08:37:43;;;;;;;6.22;1.40;;;;;;;;;;5029362;28;20053;-70
2024/01/14 08:40:12;;;;;;;12.00;2.00;;;;;;;;;;5034096;28;20838;-72
2024/01/14 08:42:43;;;;;;;7.55;1.50;;;;;;;;;;5038371;28;20494;-71
2024/01/14 08:45:09;;;;;;;13.20;2.17;;;;;;;;;;5037768;28;20143;-71
2024/01/14 08:47:35;;;;;;;9.48;1.88;;;;;;;;;;5034453;28;20045;-71
2024/01/14 08:50:01;;;;;;;8.82;2.00;;;;;;;;;;5034652;28;20079;-71
2024/01/14 08:52:27;;;;;;;9.95;1.70;;;;;;;;;;5039979;28;20056;-71
2024/01/14 08:54:53;;;;;;;6.63;1.60;;;;;;;;;;5029505;28;20056;-71
2024/01/14 08:57:19;;;;;;;8.30;1.52;;;;;;;;;;5040472;28;20116;-71
2024/01/14 08:59:45;;;;;;;7.65;1.65;;;;;;;;;;5034876;28;20493;-71
2024/01/14 09:02:11;;;;;;;8.10;1.73;;;;;;;;;;5037096;28;20052;-71
2024/01/14 09:04:37;;;;;;;5.72;1.20;;;;;;;;;;5036975;28;20041;-71
2024/01/14 09:07:03;;;;;;;7.30;1.40;;;;;;;;;;5036974;28;20037;-71
2024/01/14 09:09:30;;;;;;;5.28;1.45;;;;;;;;;;5033035;28;20092;-71
2024/01/14 09:11:56;;;;;;;10.10;1.90;;;;;;;;;;5055997;28;20044;-71
2024/01/14 09:14:22;;;;;;;8.30;2.00;;;;;;;;;;5033388;28;20049;-72
2024/01/14 09:16:49;;;;;;;9.15;1.90;;;;;;;;;;5032784;28;20505;-72
2024/01/14 09:19:15;;;;;;;8.43;1.52;;;;;;;;;;5032085;28;20048;-71
2024/01/14 09:21:41;;;;;;;5.75;1.25;;;;;;;;;;5031432;28;20049;-71
2024/01/14 09:24:08;;;;;;;9.68;1.88;;;;;;;;;;5036494;28;20516;-71
2024/01/14 09:26:34;;;;;;;11.00;1.70;;;;;;;;;;5032645;28;20042;-71
2024/01/14 09:29:00;;;;;;;5.45;1.10;;;;;;;;;;5037921;28;20418;-71
2024/01/14 09:31:27;;;;;;;4.45;1.20;;;;;;;;;;5036948;28;20048;-71
2024/01/14 09:33:53;;;;;;;4.13;1.17;;;;;;;;;;5032117;28;20892;-71
2024/01/14 09:36:19;;;;;;;5.20;1.10;;;;;;;;;;5026747;28;20095;-71
2024/01/14 09:38:46;;;;;;;5.05;1.08;;;;;;;;;;5030646;28;20358;-71
2024/01/14 09:41:24;;;;;;;3.22;1.00;;;;;;;;;;5026656;28;20037;-71
2024/01/14 09:43:51;;;;;;;5.78;1.10;;;;;;;;;;5031584;28;20044;-71
2024/01/14 09:46:18;;;;;;;2.58;1.00;;;;;;;;;;5023951;28;20032;-72
2024/01/14 09:48:45;;;;;;;2.75;1.15;;;;;;;;;;5023826;28;20140;-72
2024/01/14 09:51:11;;;;;;;3.15;0.95;;;;;;;;;;5025925;28;20052;-72
2024/01/14 09:53:37;;;;;;;2.85;1.05;;;;;;;;;;5025733;28;20052;-72
2024/01/14 09:56:07;;;;;;;3.58;1.00;;;;;;;;;;5034043;28;20052;-72
2024/01/14 09:58:33;;;;;;;4.45;1.23;;;;;;;;;;5034394;28;20163;-71
2024/01/14 10:01:01;;;;;;;5.53;3.13;;;;;;;;;;5026853;28;20049;-69
2024/01/14 10:03:28;;;;;;;4.30;1.60;;;;;;;;;;5033084;28;20049;-70
2024/01/14 10:05:54;;;;;;;5.03;1.60;;;;;;;;;;5034220;28;20959;-71
2024/01/14 10:08:20;;;;;;;6.15;1.73;;;;;;;;;;5038128;28;20036;-71
2024/01/14 10:10:53;;;;;;;5.75;2.25;;;;;;;;;;5031761;28;20117;-70
2024/01/14 10:13:22;;;;;;;7.60;2.20;;;;;;;;;;5038336;28;20536;-70
2024/01/14 10:15:48;;;;;;;9.35;2.80;;;;;;;;;;5029992;28;20041;-70
2024/01/14 10:18:14;;;;;;;8.63;3.00;;;;;;;;;;5021229;28;21226;-71
2024/01/14 10:20:40;;;;;;;7.80;2.92;;;;;;;;;;5025584;28;20523;-71
2024/01/14 10:23:06;;;;;;;10.48;3.30;;;;;;;;;;5037689;28;20488;-71
2024/01/14 10:25:33;;;;;;;9.52;4.82;;;;;;;;;;5031069;28;20048;-71
2024/01/14 10:28:05;;;;;;;11.43;6.05;;;;;;;;;;5035760;28;20055;-71
2024/01/14 10:30:31;;;;;;;23.75;9.30;;;;;;;;;;5031229;28;20057;-71
2024/01/14 10:32:57;;;;;;;25.73;10.90;;;;;;;;;;5035523;28;20133;-71
2024/01/14 10:35:27;;;;;;;30.65;14.05;;;;;;;;;;5031514;28;20045;-70
2024/01/14 10:37:53;;;;;;;32.33;16.02;;;;;;;;;;5036594;28;20103;-70
2024/01/14 10:40:20;;;;;;;36.40;17.48;;;;;;;;;;5031523;28;20520;-70
2024/01/14 10:42:46;;;;;;;39.60;19.25;;;;;;;;;;5030332;28;20125;-70
2024/01/14 10:45:12;;;;;;;49.58;22.10;;;;;;;;;;5030337;28;20080;-71
2024/01/14 10:47:42;;;;;;;48.15;21.02;;;;;;;;;;5036512;28;20094;-70
2024/01/14 10:50:09;;;;;;;45.60;20.65;;;;;;;;;;5030934;28;20061;-71
2024/01/14 10:52:41;;;;;;;43.22;20.45;;;;;;;;;;5035513;28;20415;-71
2024/01/14 10:55:19;;;;;;;35.00;17.80;;;;;;;;;;5032877;28;20512;-70
2024/01/14 10:57:45;;;;;;;42.10;19.85;;;;;;;;;;5034909;28;20049;-70
2024/01/14 11:00:12;;;;;;;48.30;20.98;;;;;;;;;;5036526;28;20045;-70
2024/01/14 11:02:39;;;;;;;42.20;19.67;;;;;;;;;;5027889;28;20036;-70
2024/01/14 11:05:06;;;;;;;40.05;19.80;;;;;;;;;;5028111;28;20045;-70
2024/01/14 11:07:33;;;;;;;39.50;18.02;;;;;;;;;;5035295;28;20509;-70
2024/01/14 11:10:00;;;;;;;35.67;17.27;;;;;;;;;;5027418;28;20696;-70
2024/01/14 11:12:44;;;;;;;31.63;14.23;;;;;;;;;;5035234;28;20107;-70
2024/01/14 11:15:22;;;;;;;29.48;14.30;;;;;;;;;;5030591;28;20041;-70
2024/01/14 11:17:57;;;;;;;28.30;13.00;;;;;;;;;;5031356;28;20068;-70
2024/01/14 11:20:29;;;;;;;26.27;10.30;;;;;;;;;;5033545;28;20053;-70
2024/01/14 11:22:55;;;;;;;19.73;9.32;;;;;;;;;;5033208;28;20160;-70
2024/01/14 11:25:30;;;;;;;20.73;10.57;;;;;;;;;;5027902;28;20051;-70
2024/01/14 11:27:56;;;;;;;28.00;10.45;;;;;;;;;;5033861;28;20048;-70
2024/01/14 11:30:42;;;;;;;19.95;10.57;;;;;;;;;;5028368;28;20052;-70
2024/01/14 11:33:28;;;;;;;21.38;10.85;;;;;;;;;;5036813;28;20088;-70
2024/01/14 11:35:54;;;;;;;21.73;11.48;;;;;;;;;;5034702;28;20088;-70
2024/01/14 11:38:33;;;;;;;23.98;12.40;;;;;;;;;;5040378;28;20514;-70
2024/01/14 11:41:01;;;;;;;23.45;11.75;;;;;;;;;;5033994;28;20047;-70
2024/01/14 11:43:28;;;;;;;20.52;9.07;;;;;;;;;;5035128;28;20505;-70
2024/01/14 11:45:55;;;;;;;16.80;9.68;;;;;;;;;;5037380;28;20049;-70
2024/01/14 11:48:21;;;;;;;15.43;8.45;;;;;;;;;;5039642;28;20056;-70
2024/01/14 11:50:50;;;;;;;23.48;9.93;;;;;;;;;;5032505;28;20045;-70
2024/01/14 11:53:16;;;;;;;17.52;8.63;;;;;;;;;;5037586;28;20045;-70
2024/01/14 11:55:42;;;;;;;17.58;8.45;;;;;;;;;;5030951;28;20048;-70
2024/01/14 11:58:16;;;;;;;17.67;9.38;;;;;;;;;;5037191;28;20033;-70
2024/01/14 12:00:42;;;;;;;19.55;10.93;;;;;;;;;;5035013;28;20410;-70
2024/01/14 12:03:09;;;;;;;16.20;8.88;;;;;;;;;;5033545;28;20041;-70
2024/01/14 12:05:35;;;;;;;17.42;8.60;;;;;;;;;;5035488;28;20123;-70
2024/01/14 12:08:02;;;;;;;20.70;11.27;;;;;;;;;;5037059;28;20053;-70
2024/01/14 12:10:28;;;;;;;21.67;11.90;;;;;;;;;;5036971;28;20040;-70
2024/01/14 12:12:56;;;;;;;26.63;14.20;;;;;;;;;;5037321;28;20037;-70
2024/01/14 12:15:22;;;;;;;26.45;16.35;;;;;;;;;;5032474;28;20088;-70
2024/01/14 12:17:58;;;;;;;24.85;14.77;;;;;;;;;;5040835;28;20434;-70
2024/01/14 12:20:25;;;;;;;26.27;14.55;;;;;;;;;;5036278;28;20045;-70
2024/01/14 12:22:58;;;;;;;26.50;15.02;;;;;;;;;;5032054;28;20048;-70
2024/01/14 12:25:24;;;;;;;35.83;17.90;;;;;;;;;;5015724;28;20134;-70
2024/01/14 12:27:50;;;;;;;36.42;18.25;;;;;;;;;;5040553;28;20493;-70
2024/01/14 12:30:24;;;;;;;36.60;19.17;;;;;;;;;;5033462;28;20059;-70
2024/01/14 12:32:50;;;;;;;36.50;18.98;;;;;;;;;;5035115;28;20041;-70
2024/01/14 12:35:16;;;;;;;41.10;21.38;;;;;;;;;;5033204;28;20037;-70
2024/01/14 12:37:42;;;;;;;40.80;20.13;;;;;;;;;;5037742;28;20510;-70
2024/01/14 12:40:09;;;;;;;40.70;21.25;;;;;;;;;;5031189;28;20048;-70
2024/01/14 12:42:35;;;;;;;38.03;21.90;;;;;;;;;;5034901;28;20682;-70
2024/01/14 12:45:01;;;;;;;43.22;20.58;;;;;;;;;;5037160;28;20485;-70
2024/01/14 12:47:27;;;;;;;45.15;22.33;;;;;;;;;;5037800;28;20032;-70
2024/01/14 12:49:54;;;;;;;44.38;21.42;;;;;;;;;;5030314;28;20301;-70
2024/01/14 12:52:21;;;;;;;40.30;20.38;;;;;;;;;;5030844;28;20132;-70
2024/01/14 12:54:48;;;;;;;38.85;20.52;;;;;;;;;;5037134;28;20494;-70
2024/01/14 12:57:14;;;;;;;42.75;21.77;;;;;;;;;;5033666;28;20144;-70
2024/01/14 12:59:40;;;;;;;43.65;21.88;;;;;;;;;;5035409;28;20674;-70
2024/01/14 13:02:06;;;;;;;44.83;22.58;;;;;;;;;;5035061;28;20040;-70
2024/01/14 13:04:33;;;;;;;48.58;22.67;;;;;;;;;;5033339;28;20048;-70
2024/01/14 13:06:59;;;;;;;44.38;21.80;;;;;;;;;;5055364;28;20068;-70
2024/01/14 13:09:25;;;;;;;48.10;22.15;;;;;;;;;;5033813;28;20045;-70
2024/01/14 13:11:51;;;;;;;38.67;19.15;;;;;;;;;;5036178;28;20049;-70
2024/01/14 13:14:17;;;;;;;44.58;20.30;;;;;;;;;;5016214;28;20493;-70
2024/01/14 13:16:43;;;;;;;38.60;19.80;;;;;;;;;;5031194;28;20451;-70
2024/01/14 13:19:09;;;;;;;38.95;19.35;;;;;;;;;;5034074;28;20147;-69
2024/01/14 13:21:36;;;;;;;42.17;22.45;;;;;;;;;;5027687;28;20041;-70
2024/01/14 13:24:02;;;;;;;41.83;21.20;;;;;;;;;;5036676;28;20455;-70
2024/01/14 13:26:28;;;;;;;42.45;21.38;;;;;;;;;;5032971;28;20059;-70
2024/01/14 13:28:55;;;;;;;41.22;19.67;;;;;;;;;;5040114;28;20056;-70
2024/01/14 13:31:21;;;;;;;38.40;19.30;;;;;;;;;;5031999;28;20049;-70
2024/01/14 13:33:47;;;;;;;38.17;18.65;;;;;;;;;;5034710;28;20747;-70
2024/01/14 13:36:13;;;;;;;33.20;15.60;;;;;;;;;;5031963;28;20044;-69
2024/01/14 13:38:39;;;;;;;31.92;13.77;;;;;;;;;;5030426;28;20053;-70
2024/01/14 13:41:06;;;;;;;25.67;11.45;;;;;;;;;;5031323;28;20049;-70
2024/01/14 13:43:32;;;;;;;19.33;9.38;;;;;;;;;;5034507;28;20048;-70
2024/01/14 13:45:58;;;;;;;18.85;8.75;;;;;;;;;;5029925;28;20508;-69
2024/01/14 13:48:24;;;;;;;15.18;7.05;;;;;;;;;;5032615;28;20045;-71
2024/01/14 13:50:51;;;;;;;14.73;6.18;;;;;;;;;;5028437;28;20076;-71
2024/01/14 13:53:18;;;;;;;10.10;5.45;;;;;;;;;;5032012;28;20060;-71
2024/01/14 13:55:45;;;;;;;13.35;4.97;;;;;;;;;;5031036;28;20041;-70
2024/01/14 13:58:11;;;;;;;10.45;3.88;;;;;;;;;;5037677;28;20592;-70
2024/01/14 14:00:37;;;;;;;12.13;6.05;;;;;;;;;;5033568;28;20045;-71
2024/01/14 14:03:03;;;;;;;9.43;3.10;;;;;;;;;;5040077;28;20120;-71
2024/01/14 14:05:29;;;;;;;8.45;2.97;;;;;;;;;;5031378;28;20056;-70
2024/01/14 14:07:56;;;;;;;4.15;2.00;;;;;;;;;;5031580;28;20127;-70
2024/01/14 14:10:22;;;;;;;7.13;1.85;;;;;;;;;;5028752;28;20080;-71
2024/01/14 14:12:48;;;;;;;6.90;2.00;;;;;;;;;;5032874;28;22238;-71
2024/01/14 14:15:14;;;;;;;4.63;1.48;;;;;;;;;;5031878;28;20037;-70
2024/01/14 14:17:41;;;;;;;4.80;1.60;;;;;;;;;;5027895;28;20049;-70
2024/01/14 14:20:08;;;;;;;8.60;1.88;;;;;;;;;;5030303;28;20406;-69
2024/01/14 14:22:34;;;;;;;3.60;1.40;;;;;;;;;;5034828;28;20847;-69
2024/01/14 14:25:00;;;;;;;5.30;1.15;;;;;;;;;;5024817;28;20041;-69
2024/01/14 14:27:26;;;;;;;2.80;0.98;;;;;;;;;;5026006;28;21844;-69